createdAt,value
2023-07-19T00:01:39.156Z,2.80
2023-07-19T00:04:06.075Z,2.92
2023-07-19T00:19:20.724Z,3.10
2023-07-19T00:21:49.458Z,2.60
2023-07-19T00:24:18.322Z,3.22
2023-07-19T00:26:45.755Z,3.05
2023-07-19T00:29:15.865Z,2.85
2023-07-19T00:31:44.405Z,3.03
2023-07-19T00:34:13.336Z,2.72
2023-07-19T00:36:40.075Z,3.17
2023-07-19T00:39:09.997Z,3.22
2023-07-19T00:41:36.659Z,3.05
2023-07-19T00:44:05.471Z,2.67
2023-07-19T00:46:33.920Z,3.00
2023-07-19T00:49:02.892Z,2.42
2023-07-19T00:51:34.115Z,3.35
2023-07-19T00:54:02.099Z,3.00
2023-07-19T00:56:33.061Z,3.03
2023-07-19T00:59:02.124Z,3.22
2023-07-19T01:01:32.262Z,3.38
2023-07-19T01:04:01.074Z,3.05
2023-07-19T01:06:31.368Z,2.97
2023-07-19T01:09:01.419Z,3.17
2023-07-19T01:11:33.130Z,4.03
2023-07-19T01:13:59.817Z,3.72
2023-07-19T01:16:29.841Z,3.10
2023-07-19T01:18:56.801Z,3.33
2023-07-19T01:21:31.376Z,3.53
2023-07-19T01:23:59.480Z,2.97
2023-07-19T01:26:26.186Z,3.42
2023-07-19T01:28:58.396Z,3.92
2023-07-19T01:31:26.089Z,3.53
2023-07-19T01:33:56.457Z,3.00
2023-07-19T01:36:23.543Z,3.15
2023-07-19T01:38:50.918Z,3.08
2023-07-19T01:41:17.599Z,3.20
2023-07-19T01:43:48.422Z,3.00
2023-07-19T01:48:45.947Z,3.00
2023-07-19T01:51:16.906Z,3.10
2023-07-19T01:53:49.175Z,3.10
2023-07-19T01:56:47.378Z,3.70
2023-07-19T01:59:18.156Z,3.13
2023-07-19T02:01:49.644Z,2.90
2023-07-19T02:04:44.625Z,3.17
2023-07-19T02:10:06.394Z,3.33
2023-07-19T02:12:36.979Z,2.97
2023-07-19T02:15:04.679Z,3.10
2023-07-19T02:17:31.430Z,3.83
2023-07-19T02:20:04.411Z,2.97
2023-07-19T02:24:58.535Z,2.80
2023-07-19T02:27:25.176Z,3.08
2023-07-19T02:29:57.658Z,3.17
2023-07-19T02:32:26.067Z,3.30
2023-07-19T02:34:54.903Z,3.25
2023-07-19T02:37:21.591Z,3.28
2023-07-19T02:39:49.846Z,2.83
2023-07-19T02:42:18.746Z,3.25
2023-07-19T02:44:49.458Z,2.83
2023-07-19T02:47:28.426Z,3.10
2023-07-19T02:49:58.464Z,3.28
2023-07-19T02:52:30.686Z,3.28
2023-07-19T02:55:01.128Z,3.33
2023-07-19T02:57:30.422Z,3.10
2023-07-19T02:59:59.383Z,3.42
2023-07-19T03:02:31.601Z,3.65
2023-07-19T03:04:58.359Z,4.03
2023-07-19T03:07:26.202Z,3.03
2023-07-19T03:09:53.068Z,3.05
2023-07-19T03:12:23.697Z,3.08
2023-07-19T03:15:19.724Z,3.17
2023-07-19T03:17:49.579Z,2.83
2023-07-19T03:20:17.109Z,3.35
2023-07-19T03:22:45.057Z,3.22
2023-07-19T03:25:14.606Z,3.28
2023-07-19T03:27:42.203Z,3.58
2023-07-19T03:30:09.608Z,3.20
2023-07-19T03:32:38.649Z,3.15
2023-07-19T03:35:05.995Z,3.03
2023-07-19T03:37:34.894Z,3.17
2023-07-19T03:40:04.625Z,3.25
2023-07-19T03:42:36.119Z,3.05
2023-07-19T03:45:04.651Z,3.63
2023-07-19T03:47:34.559Z,3.20
2023-07-19T03:50:02.930Z,3.10
2023-07-19T03:52:31.262Z,3.45
2023-07-19T03:54:58.782Z,3.58
2023-07-19T03:57:36.133Z,2.50
2023-07-19T04:00:04.372Z,3.38
2023-07-19T04:02:44.904Z,3.15
2023-07-19T04:05:14.319Z,3.28
2023-07-19T04:07:45.738Z,3.22
2023-07-19T04:10:15.084Z,3.30
2023-07-19T04:12:42.752Z,3.65
2023-07-19T04:15:10.865Z,2.42
2023-07-19T04:17:38.778Z,3.33
2023-07-19T04:20:07.676Z,3.35
2023-07-19T04:22:34.691Z,3.88
2023-07-19T04:25:03.866Z,3.38
2023-07-19T04:27:31.823Z,3.80
2023-07-19T04:30:00.622Z,3.30
2023-07-19T04:32:29.211Z,3.20
2023-07-19T04:34:58.544Z,3.13
2023-07-19T04:37:28.240Z,3.42
2023-07-19T04:39:56.646Z,3.28
2023-07-19T04:42:23.716Z,2.72
2023-07-19T04:44:54.656Z,3.67
2023-07-19T04:47:23.419Z,3.88
2023-07-19T04:49:51.659Z,3.58
2023-07-19T04:52:20.256Z,3.28
2023-07-19T04:54:49.023Z,3.38
2023-07-19T04:57:24.705Z,3.38
2023-07-19T05:11:25.627Z,3.60
2023-07-19T05:14:45.258Z,3.58
2023-07-19T05:17:38.428Z,3.10
2023-07-19T05:20:09.931Z,2.95
2023-07-19T05:23:05.734Z,3.55
2023-07-19T05:26:24.482Z,3.78
2023-07-19T05:28:53.975Z,3.72
2023-07-19T05:31:24.666Z,3.92
2023-07-19T05:33:54.293Z,3.65
2023-07-19T05:36:24.342Z,3.22
2023-07-19T05:38:52.494Z,3.47
2023-07-19T05:41:21.717Z,2.85
2023-07-19T05:44:01.571Z,3.38
2023-07-19T05:46:40.239Z,2.60
2023-07-19T05:49:08.095Z,2.80
2023-07-19T05:51:37.076Z,3.70
2023-07-19T05:54:05.357Z,3.22
2023-07-19T05:56:32.354Z,3.50
2023-07-19T05:59:05.206Z,3.55
2023-07-19T06:01:38.681Z,3.85
2023-07-19T06:04:38.916Z,3.72
2023-07-19T06:07:05.702Z,3.33
2023-07-19T06:09:36.509Z,3.88
2023-07-19T06:12:09.016Z,3.15
2023-07-19T06:15:05.886Z,3.22
2023-07-19T06:17:35.100Z,4.10
2023-07-19T06:20:05.903Z,3.63
2023-07-19T06:22:33.940Z,3.38
2023-07-19T06:25:05.079Z,3.88
2023-07-19T06:27:35.275Z,3.58
2023-07-19T06:30:02.369Z,3.92
2023-07-19T06:32:32.648Z,3.63
2023-07-19T06:34:59.344Z,4.05
2023-07-19T06:37:31.910Z,3.50
2023-07-19T06:40:28.092Z,3.05
2023-07-19T06:42:57.061Z,2.92
2023-07-19T06:45:27.446Z,3.45
2023-07-19T06:47:55.215Z,3.10
2023-07-19T06:50:26.506Z,3.13
2023-07-19T06:52:57.885Z,3.63
2023-07-19T06:55:24.764Z,2.88
2023-07-19T06:58:22.556Z,3.03
2023-07-19T07:00:58.053Z,3.13
2023-07-19T07:03:35.243Z,2.78
2023-07-19T07:06:04.561Z,3.28
2023-07-19T07:08:31.436Z,2.50
2023-07-19T07:11:01.852Z,3.08
2023-07-19T07:13:32.498Z,2.88
2023-07-19T07:16:03.119Z,2.72
2023-07-19T07:18:32.492Z,2.55
2023-07-19T07:21:04.499Z,2.80
2023-07-19T07:23:34.440Z,2.60
2023-07-19T07:26:01.263Z,3.05
2023-07-19T07:28:33.985Z,2.92
2023-07-19T07:31:12.590Z,2.70
2023-07-19T07:33:47.889Z,2.45
2023-07-19T07:36:18.184Z,2.30
2023-07-19T07:38:48.574Z,2.40
2023-07-19T07:41:28.523Z,2.25
2023-07-19T07:44:50.054Z,2.55
2023-07-19T07:47:20.547Z,2.50
2023-07-19T07:49:48.483Z,2.92
2023-07-19T07:52:16.486Z,2.42
2023-07-19T07:54:46.319Z,2.45
2023-07-19T07:57:18.246Z,2.80
2023-07-19T07:59:50.017Z,2.35
2023-07-19T08:02:20.778Z,2.58
2023-07-19T08:04:48.365Z,2.30
2023-07-19T08:07:20.270Z,2.05
2023-07-19T08:10:14.094Z,2.42
2023-07-19T08:13:06.973Z,2.05
2023-07-19T08:15:40.005Z,2.05
2023-07-19T08:18:10.629Z,2.20
2023-07-19T08:20:41.283Z,2.15
2023-07-19T08:23:09.325Z,2.65
2023-07-19T08:25:45.157Z,2.20
2023-07-19T08:28:17.479Z,2.35
2023-07-19T08:30:44.651Z,2.78
2023-07-19T08:33:43.260Z,2.22
2023-07-19T08:36:10.262Z,2.15
2023-07-19T08:38:40.729Z,2.30
2023-07-19T08:41:12.602Z,2.10
2023-07-19T08:43:45.578Z,2.30
2023-07-19T08:46:19.654Z,2.30
2023-07-19T08:48:52.249Z,2.25
2023-07-19T08:51:24.075Z,1.80
2023-07-19T08:54:20.373Z,1.98
2023-07-19T08:56:48.555Z,2.10
2023-07-19T08:59:18.685Z,2.00
2023-07-19T09:01:45.501Z,1.98
2023-07-19T09:04:38.707Z,1.80
2023-07-19T09:07:05.897Z,1.83
2023-07-19T09:09:40.793Z,1.60
2023-07-19T09:12:17.639Z,1.80
2023-07-19T09:15:16.815Z,1.83
2023-07-19T09:17:50.119Z,2.00
2023-07-19T09:20:20.713Z,1.95
2023-07-19T09:22:51.225Z,1.33
2023-07-19T09:25:18.104Z,1.30
2023-07-19T09:27:45.078Z,1.25
2023-07-19T09:30:15.799Z,1.65
2023-07-19T09:32:59.158Z,1.40
2023-07-19T09:35:29.856Z,1.42
2023-07-19T09:37:59.132Z,1.20
2023-07-19T10:01:07.288Z,1.60
2023-07-19T10:03:47.356Z,1.58
2023-07-19T10:06:17.828Z,1.23
2023-07-19T10:08:45.988Z,1.30
2023-07-19T10:11:43.264Z,1.50
2023-07-19T10:14:20.437Z,1.40
2023-07-19T10:17:27.143Z,1.70
2023-07-19T10:20:18.084Z,1.25
2023-07-19T10:22:59.630Z,1.10
2023-07-19T10:25:36.769Z,1.88
2023-07-19T10:28:10.718Z,1.83
2023-07-19T10:31:04.424Z,1.53
2023-07-19T10:33:40.377Z,1.27
2023-07-19T10:36:09.868Z,1.77
2023-07-19T10:38:39.916Z,1.50
2023-07-19T10:41:09.529Z,1.50
2023-07-19T10:46:15.879Z,1.30
2023-07-19T10:49:15.016Z,1.70
2023-07-19T10:51:58.802Z,1.33
2023-07-19T10:54:31.591Z,1.25
2023-07-19T10:57:35.392Z,1.55
2023-07-19T11:00:29.386Z,1.20
2023-07-19T11:02:57.320Z,1.48
2023-07-19T11:05:27.892Z,1.83
2023-07-19T11:07:54.837Z,1.73
2023-07-19T11:10:27.582Z,1.90
2023-07-19T11:12:55.164Z,2.15
2023-07-19T11:15:27.573Z,1.77
2023-07-19T11:18:26.358Z,1.70
2023-07-19T11:20:57.737Z,1.63
2023-07-19T11:23:30.927Z,1.35
2023-07-19T11:26:12.582Z,1.90
2023-07-19T11:28:44.172Z,1.60
2023-07-19T11:34:16.870Z,1.90
2023-07-19T11:36:47.323Z,1.30
2023-07-19T11:39:22.213Z,1.30
2023-07-19T11:42:40.614Z,1.67
2023-07-19T11:45:17.612Z,1.73
2023-07-19T11:47:46.082Z,1.70
2023-07-19T11:50:17.057Z,1.70
2023-07-19T11:53:09.408Z,1.70
2023-07-19T11:58:46.424Z,1.90
2023-07-19T12:01:16.457Z,1.90
2023-07-19T12:03:44.501Z,1.88
2023-07-19T12:06:15.079Z,1.88
2023-07-19T12:08:45.140Z,2.45
2023-07-19T12:11:16.145Z,2.03
2023-07-19T12:14:13.463Z,2.63
2023-07-19T12:16:43.924Z,2.60
2023-07-19T12:19:36.609Z,2.15
2023-07-19T12:22:14.176Z,2.33
2023-07-19T12:27:42.655Z,2.40
2023-07-19T12:30:12.510Z,2.53
2023-07-19T12:33:08.055Z,2.60
2023-07-19T12:35:38.041Z,1.98
2023-07-19T12:38:31.046Z,2.10
2023-07-19T12:40:59.456Z,2.15
2023-07-19T12:43:30.080Z,2.80
2023-07-19T12:45:58.606Z,2.47
2023-07-19T12:48:29.613Z,2.60
2023-07-19T12:51:01.499Z,2.00
2023-07-19T12:56:05.928Z,2.50
2023-07-19T12:58:39.498Z,2.67
2023-07-19T13:01:13.647Z,2.25
2023-07-19T13:03:45.707Z,2.33
2023-07-19T13:06:37.366Z,1.95
2023-07-19T13:09:08.332Z,1.95
2023-07-19T13:11:39.799Z,2.27
2023-07-19T13:14:15.250Z,2.17
2023-07-19T13:16:43.289Z,2.20
2023-07-19T13:19:13.598Z,1.98
2023-07-19T13:21:41.619Z,2.25
2023-07-19T13:24:10.411Z,2.30
2023-07-19T13:27:28.662Z,1.83
2023-07-19T13:30:25.353Z,1.90
2023-07-19T13:32:53.421Z,2.10
2023-07-19T13:40:49.807Z,2.23
2023-07-19T13:43:23.594Z,2.03
2023-07-19T13:45:50.677Z,2.33
2023-07-19T13:48:21.803Z,2.28
2023-07-19T13:50:52.198Z,2.50
2023-07-19T13:53:20.169Z,2.30
2023-07-19T13:55:47.245Z,2.25
2023-07-19T13:58:15.323Z,2.10
2023-07-19T14:00:45.224Z,2.45
2023-07-19T14:03:13.641Z,2.53
2023-07-19T14:06:32.111Z,2.50
2023-07-19T14:08:59.309Z,1.92
2023-07-19T14:11:28.053Z,2.25
2023-07-19T14:13:58.224Z,2.13
2023-07-19T14:16:25.264Z,2.40
2023-07-19T14:18:55.677Z,2.00
2023-07-19T14:21:50.261Z,1.98
2023-07-19T14:24:21.503Z,1.88
2023-07-19T14:26:51.382Z,2.03
2023-07-19T14:29:20.669Z,2.17
2023-07-19T14:32:18.375Z,1.95
2023-07-19T14:34:47.445Z,1.77
2023-07-19T14:37:17.218Z,1.88
2023-07-19T14:39:51.990Z,2.20
2023-07-19T14:42:25.572Z,2.17
2023-07-19T14:44:57.726Z,2.22
2023-07-19T14:47:52.039Z,1.80
2023-07-19T14:50:20.349Z,2.17
2023-07-19T14:52:51.485Z,2.15
2023-07-19T14:55:19.075Z,2.05
2023-07-19T14:57:50.716Z,2.33
2023-07-19T15:00:53.340Z,1.98
2023-07-19T15:06:06.358Z,2.83
2023-07-19T15:08:36.832Z,2.30
2023-07-19T15:11:04.480Z,2.28
2023-07-19T15:13:34.880Z,2.00
2023-07-19T15:16:02.524Z,2.22
2023-07-19T15:18:30.607Z,2.47
2023-07-19T15:21:05.140Z,2.13
2023-07-19T15:32:16.040Z,2.05
2023-07-19T15:37:47.721Z,2.40
2023-07-19T15:49:22.399Z,2.65
2023-07-19T15:51:50.861Z,1.90
2023-07-19T15:54:21.497Z,2.88
2023-07-19T15:56:50.003Z,2.05
2023-07-19T15:59:22.426Z,1.77
2023-07-19T16:01:51.941Z,1.63
2023-07-19T16:04:25.926Z,1.77
2023-07-19T16:06:54.124Z,1.52
2023-07-19T16:10:13.881Z,1.77
2023-07-19T16:12:40.700Z,1.70
2023-07-19T16:15:37.032Z,1.83
2023-07-19T16:18:08.202Z,1.50
2023-07-19T16:20:37.957Z,1.50
2023-07-19T16:23:08.981Z,1.55
2023-07-19T16:25:37.103Z,1.77
2023-07-19T16:28:06.472Z,1.20
2023-07-19T16:30:36.579Z,1.70
2023-07-19T16:33:10.362Z,1.53
2023-07-19T16:35:38.485Z,1.10
2023-07-19T16:38:56.947Z,1.33
2023-07-19T16:41:27.605Z,1.23
2023-07-19T16:43:55.904Z,1.42
2023-07-19T16:46:24.295Z,1.30
2023-07-19T16:49:27.015Z,1.40
2023-07-19T16:52:14.469Z,1.10
2023-07-19T16:54:44.466Z,1.23
2023-07-19T16:57:16.835Z,1.30
2023-07-19T16:59:43.842Z,1.30
2023-07-19T17:02:16.781Z,1.27
2023-07-19T17:04:53.014Z,1.05
2023-07-19T17:07:57.138Z,1.10
2023-07-19T17:11:03.698Z,1.20
2023-07-19T17:13:42.622Z,1.20
2023-07-19T17:16:13.263Z,1.23
2023-07-19T17:18:42.031Z,1.27
2023-07-19T17:21:13.490Z,1.20
2023-07-19T17:23:41.424Z,1.13
2023-07-19T17:26:09.337Z,1.38
2023-07-19T17:28:36.643Z,1.38
2023-07-19T17:31:06.702Z,1.23
2023-07-19T17:33:37.345Z,1.30
2023-07-19T17:36:07.061Z,1.30
2023-07-19T17:38:33.841Z,1.00
2023-07-19T17:41:01.270Z,1.10
2023-07-19T17:43:28.558Z,1.30
2023-07-19T17:46:01.827Z,1.50
2023-07-19T17:48:28.791Z,1.20
2023-07-19T17:50:57.583Z,1.30
2023-07-19T17:53:26.374Z,1.20
2023-07-19T17:55:53.465Z,1.33
2023-07-19T17:58:25.364Z,0.85
2023-07-19T18:00:52.657Z,1.52
2023-07-19T18:03:49.541Z,0.80
2023-07-19T18:06:18.428Z,1.23
2023-07-19T18:08:50.351Z,1.00
2023-07-19T18:11:17.186Z,1.20
2023-07-19T18:13:46.713Z,1.20
2023-07-19T18:16:15.924Z,0.80
2023-07-19T18:18:47.155Z,1.20
2023-07-19T18:21:14.290Z,0.80
2023-07-19T18:23:43.985Z,0.90
2023-07-19T18:26:15.845Z,0.93
2023-07-19T18:28:46.052Z,1.20
2023-07-19T18:31:13.614Z,0.90
2023-07-19T18:33:45.204Z,1.38
2023-07-19T18:36:11.927Z,1.08
2023-07-19T18:38:39.618Z,1.02
2023-07-19T18:41:13.014Z,1.17
2023-07-19T18:43:40.640Z,0.80
2023-07-19T18:46:27.672Z,1.20
2023-07-19T18:48:58.235Z,1.08
2023-07-19T18:51:27.248Z,1.10
2023-07-19T18:53:54.190Z,1.20
2023-07-19T18:56:23.700Z,1.00
2023-07-19T18:58:51.514Z,1.20
2023-07-19T19:01:19.266Z,0.80
2023-07-19T19:03:54.500Z,1.00
2023-07-19T19:06:58.514Z,0.90
2023-07-19T19:09:28.226Z,0.73
2023-07-19T19:11:59.851Z,1.00
2023-07-19T19:14:31.113Z,1.10
2023-07-19T19:17:02.147Z,1.10
2023-07-19T19:19:34.190Z,1.10
2023-07-19T19:22:01.000Z,1.25
2023-07-19T19:24:33.159Z,1.20
2023-07-19T19:27:04.037Z,1.02
2023-07-19T19:29:34.496Z,1.30
2023-07-19T19:32:05.129Z,0.95
2023-07-19T19:34:33.186Z,1.30
2023-07-19T19:37:01.780Z,1.13
2023-07-19T19:39:30.952Z,0.95
2023-07-19T19:42:03.175Z,1.20
2023-07-19T19:44:32.087Z,1.35
2023-07-19T19:47:28.461Z,1.05
2023-07-19T19:49:56.275Z,0.90
2023-07-19T19:52:26.510Z,0.93
2023-07-19T19:55:00.823Z,1.30
2023-07-19T19:57:33.168Z,1.20
2023-07-19T20:00:05.386Z,1.05
2023-07-19T20:02:38.689Z,1.20
2023-07-19T20:05:56.032Z,0.90
2023-07-19T20:08:03.964Z,1.20
2023-07-19T20:10:33.275Z,0.80
2023-07-19T20:13:53.280Z,0.80
2023-07-19T20:16:24.032Z,0.80
2023-07-19T20:18:58.362Z,0.90
2023-07-19T20:21:30.254Z,0.90
2023-07-19T20:23:56.971Z,0.90
2023-07-19T20:26:27.838Z,1.10
2023-07-19T20:32:55.137Z,1.30
2023-07-19T20:38:46.348Z,0.85
2023-07-19T20:44:20.869Z,0.90
2023-07-19T20:46:49.423Z,0.88
2023-07-19T20:51:46.255Z,1.00
2023-07-19T20:54:18.872Z,0.80
2023-07-19T20:56:47.479Z,1.10
2023-07-19T20:59:22.225Z,0.80
2023-07-19T21:01:56.686Z,0.90
2023-07-19T21:04:29.388Z,0.95
2023-07-19T21:07:37.347Z,1.02
2023-07-19T21:10:10.411Z,0.90
2023-07-19T21:13:07.547Z,0.90
2023-07-19T21:15:34.292Z,1.25
2023-07-19T21:18:01.264Z,0.73
2023-07-19T21:20:30.507Z,1.25
2023-07-19T21:22:57.941Z,1.20
2023-07-19T21:25:24.918Z,1.40
2023-07-19T21:27:55.038Z,0.93
2023-07-19T21:30:21.801Z,0.95
2023-07-19T21:32:52.003Z,1.27
2023-07-19T21:35:24.407Z,1.00
2023-07-19T21:38:23.071Z,1.40
2023-07-19T21:40:56.409Z,1.13
2023-07-19T21:43:27.093Z,1.10
2023-07-19T21:45:53.839Z,1.05
2023-07-19T21:48:21.821Z,1.27
2023-07-19T21:50:50.747Z,1.13
2023-07-19T21:53:24.110Z,1.40
2023-07-19T21:56:06.939Z,1.42
2023-07-19T21:58:53.275Z,1.75
2023-07-19T22:01:33.449Z,1.58
2023-07-19T22:04:06.237Z,1.27
2023-07-19T22:06:39.710Z,1.50
2023-07-19T22:09:08.681Z,1.30
2023-07-19T22:11:37.458Z,1.50
2023-07-19T22:14:10.995Z,1.45
2023-07-19T22:16:41.462Z,1.55
2023-07-19T22:19:11.251Z,1.58
2023-07-19T22:21:40.473Z,1.70
2023-07-19T22:24:09.706Z,1.80
2023-07-19T22:26:36.382Z,1.88
2023-07-19T22:29:05.255Z,1.50
2023-07-19T22:31:33.498Z,1.70
2023-07-19T22:34:03.067Z,2.15
2023-07-19T22:36:29.773Z,1.60
2023-07-19T22:38:56.512Z,1.70
2023-07-19T22:41:23.754Z,1.70
2023-07-19T22:43:52.939Z,1.73
2023-07-19T22:46:20.244Z,1.45
2023-07-19T22:48:50.950Z,1.63
2023-07-19T22:51:17.835Z,1.40
2023-07-19T22:53:47.370Z,1.50
2023-07-19T22:56:14.254Z,1.42
2023-07-19T22:58:44.074Z,1.70
2023-07-19T23:01:10.727Z,1.52
2023-07-19T23:03:37.639Z,1.30
2023-07-19T23:06:10.868Z,1.27
2023-07-19T23:08:40.222Z,1.10
2023-07-19T23:11:09.084Z,1.33
2023-07-19T23:13:37.929Z,1.17
2023-07-19T23:16:04.719Z,1.30
2023-07-19T23:18:31.433Z,1.40
2023-07-19T23:21:03.854Z,1.40
2023-07-19T23:23:30.594Z,1.40
2023-07-19T23:25:58.318Z,1.50
2023-07-19T23:28:28.656Z,1.55
2023-07-19T23:30:57.456Z,1.27
2023-07-19T23:33:24.507Z,1.38
2023-07-19T23:35:51.165Z,1.20
2023-07-19T23:38:18.081Z,1.55
2023-07-19T23:40:48.361Z,1.45
2023-07-19T23:43:15.030Z,1.17
2023-07-19T23:45:41.772Z,1.20
2023-07-19T23:48:08.465Z,1.30
2023-07-19T23:50:35.173Z,1.30
2023-07-19T23:53:06.324Z,1.38
2023-07-19T23:55:33.248Z,2.00
2023-07-19T23:57:59.879Z,1.50
